This is the latest recevied weather packets stored in our database for station/object Wangen. If no packets are shown the sender has not sent any weather packets the latest 10 day(s).
| Time | Temp. | Humidity | Pressure | Rain* | Wind** | Luminosity | Snow |
|---|---|---|---|---|---|---|---|
| 1777487531 | 15° C | 39% | 1018.2 hPa | 0 mm | - | - | - |
| 1777485731 | 16.11° C | 37% | 1017.7 hPa | 0 mm | - | - | - |
| 1777483931 | 16.67° C | 36% | 1017.4 hPa | 0 mm | - | - | - |
| 1777482131 | 17.78° C | 36% | 1017.2 hPa | 0 mm | - | - | - |
| 1777480336 | 17.78° C | 37% | 1017 hPa | 0 mm | - | - | - |
| 1777478530 | 17.78° C | 37% | 1017 hPa | 0 mm | - | - | - |
| 1777476730 | 17.78° C | 37% | 1017 hPa | 0 mm | - | - | - |
| 1777474931 | 18.33° C | 37% | 1016.7 hPa | 0 mm | - | - | - |
| 1777473135 | 18.89° C | 39% | 1016.7 hPa | 0 mm | - | - | - |
| 1777471331 | 18.33° C | 41% | 1016.6 hPa | 0 mm | - | - | - |
| 1777469531 | 18.33° C | 43% | 1016.7 hPa | 0 mm | - | - | - |
| 1777467730 | 18.33° C | 43% | 1016.8 hPa | 0 mm | - | - | - |
| 1777465932 | 18.33° C | 44% | 1016.8 hPa | 0 mm | - | - | - |
| 1777464131 | 17.78° C | 46% | 1016.8 hPa | 0 mm | - | - | - |
| 1777462330 | 17.22° C | 48% | 1017 hPa | 0 mm | - | - | - |
| 1777460530 | 17.22° C | 49% | 1016.8 hPa | 0 mm | - | - | - |
| 1777458730 | 16.67° C | 50% | 1016.8 hPa | 0 mm | - | - | - |
| 1777456931 | 15.56° C | 52% | 1017 hPa | 0 mm | - | - | - |
| 1777455131 | 14.44° C | 55% | 1017 hPa | 0 mm | - | - | - |
| 1777453332 | 13.33° C | 58% | 1017 hPa | 0 mm | - | - | - |
| 1777451531 | 12.22° C | 61% | 1017 hPa | 0 mm | - | - | - |
| 1777449731 | 12.22° C | 61% | 1016.9 hPa | 0 mm | - | - | - |
| 1777447931 | 11.67° C | 62% | 1016.7 hPa | 0 mm | - | - | - |
| 1777446131 | 11.67° C | 63% | 1016.7 hPa | 0 mm | - | - | - |
| 1777444331 | 11.11° C | 63% | 1016.5 hPa | 0 mm | - | - | - |
* Rain since midnight (hover to see other rain measurements)
** Current wind speed in m/s (hover to see current wind gust speed)